createdAt,value
2018-02-15T00:02:38.760Z,75.98
2018-02-15T00:05:44.578Z,75.60
2018-02-15T00:08:49.372Z,75.74
2018-02-15T00:11:52.650Z,75.44
2018-02-15T00:14:55.923Z,75.69
2018-02-15T00:17:59.982Z,75.46
2018-02-15T00:21:03.413Z,75.19
2018-02-15T00:24:06.696Z,75.51
2018-02-15T00:27:09.993Z,75.19
2018-02-15T00:30:14.515Z,75.29
2018-02-15T00:33:17.801Z,74.99
2018-02-15T00:36:21.172Z,75.14
2018-02-15T00:39:24.685Z,75.61
2018-02-15T00:42:27.982Z,75.30
2018-02-15T00:45:31.261Z,74.97
2018-02-15T00:48:35.314Z,74.97
2018-02-15T00:51:38.645Z,74.49
2018-02-15T00:54:42.159Z,74.51
2018-02-15T00:57:46.546Z,74.56
2018-02-15T01:00:49.830Z,74.75
2018-02-15T01:03:53.102Z,75.74
2018-02-15T01:10:02.056Z,75.05
2018-02-15T01:13:06.178Z,74.73
2018-02-15T01:16:09.466Z,74.26
2018-02-15T01:19:13.598Z,74.73
2018-02-15T01:22:16.876Z,75.33
2018-02-15T01:25:20.914Z,75.79
2018-02-15T01:28:24.202Z,75.64
2018-02-15T01:31:28.243Z,75.50
2018-02-15T01:34:31.514Z,75.43
2018-02-15T01:37:34.804Z,75.32
2018-02-15T01:40:38.840Z,75.30
2018-02-15T01:43:42.497Z,75.45
2018-02-15T01:46:45.853Z,75.92
2018-02-15T01:50:05.311Z,75.56
2018-02-15T01:53:08.605Z,76.11
2018-02-15T01:56:12.633Z,76.62
2018-02-15T01:59:16.015Z,76.15
2018-02-15T02:02:19.314Z,76.11
2018-02-15T02:05:23.551Z,75.99
2018-02-15T02:08:26.833Z,76.03
2018-02-15T02:11:30.096Z,76.06
2018-02-15T02:14:36.788Z,75.73
2018-02-15T02:17:41.440Z,75.40
2018-02-15T02:20:44.742Z,75.41
2018-02-15T02:23:49.283Z,75.64
2018-02-15T02:26:52.579Z,75.98
2018-02-15T02:29:55.862Z,76.03
2018-02-15T02:32:59.151Z,76.16
2018-02-15T02:36:02.457Z,75.99
2018-02-15T02:39:06.101Z,75.97
2018-02-15T02:42:09.379Z,75.94
2018-02-15T02:45:12.656Z,75.76
2018-02-15T02:48:15.956Z,75.59
2018-02-15T02:51:20.465Z,75.23
2018-02-15T02:54:25.726Z,75.25
2018-02-15T02:57:29.011Z,75.32
2018-02-15T03:00:33.081Z,74.78
2018-02-15T03:03:36.386Z,75.15
2018-02-15T03:06:39.688Z,75.02
2018-02-15T03:09:42.973Z,74.76
2018-02-15T03:12:46.270Z,74.25
2018-02-15T03:15:51.544Z,74.05
2018-02-15T03:18:54.831Z,73.79
2018-02-15T03:21:58.104Z,74.10
2018-02-15T03:25:08.532Z,74.55
2018-02-15T03:28:11.837Z,73.80
2018-02-15T03:31:15.135Z,74.16
2018-02-15T03:34:19.185Z,74.27
2018-02-15T03:37:22.500Z,74.17
2018-02-15T03:40:25.760Z,74.48
2018-02-15T03:43:29.046Z,74.43
2018-02-15T03:46:33.079Z,74.61
2018-02-15T03:49:36.361Z,74.44
2018-02-15T03:52:39.644Z,74.24
2018-02-15T03:55:43.692Z,74.23
2018-02-15T03:58:47.007Z,74.05
2018-02-15T04:01:50.311Z,74.08
2018-02-15T04:04:53.590Z,73.93
2018-02-15T04:07:56.856Z,73.76
2018-02-15T04:11:00.909Z,73.75
2018-02-15T04:14:04.200Z,73.52
2018-02-15T04:17:07.476Z,73.33
2018-02-15T04:20:11.521Z,73.34
2018-02-15T04:23:14.808Z,73.44
2018-02-15T04:26:18.083Z,73.13
2018-02-15T04:29:23.748Z,72.85
2018-02-15T04:32:27.061Z,72.83
2018-02-15T04:35:36.501Z,73.93
2018-02-15T04:38:39.797Z,74.45
2018-02-15T04:41:43.096Z,75.03
2018-02-15T04:44:46.378Z,74.97
2018-02-15T04:47:49.668Z,74.53
2018-02-15T04:50:53.590Z,74.90
2018-02-15T04:53:57.817Z,74.00
2018-02-15T04:57:01.092Z,74.27
2018-02-15T05:00:05.343Z,74.07
2018-02-15T05:03:08.639Z,74.09
2018-02-15T05:06:11.933Z,73.91
2018-02-15T05:09:15.233Z,73.44
2018-02-15T05:12:28.776Z,73.28
2018-02-15T05:15:33.653Z,73.21
2018-02-15T05:18:37.415Z,72.94
2018-02-15T05:21:41.708Z,72.22
2018-02-15T05:24:45.080Z,71.62
2018-02-15T05:27:49.321Z,71.69
2018-02-15T05:30:52.762Z,71.17
2018-02-15T05:33:56.241Z,70.71
2018-02-15T05:36:59.839Z,70.59
2018-02-15T05:40:04.992Z,69.90
2018-02-15T05:43:08.544Z,70.02
2018-02-15T05:46:11.834Z,69.71
2018-02-15T05:49:15.100Z,69.76
2018-02-15T05:52:18.364Z,70.13
2018-02-15T05:55:23.877Z,69.83
2018-02-15T05:58:27.280Z,70.13
2018-02-15T06:01:30.578Z,70.26
2018-02-15T06:04:33.892Z,70.52
2018-02-15T06:07:37.185Z,71.05
2018-02-15T06:10:40.449Z,70.98
2018-02-15T06:13:43.724Z,70.78
2018-02-15T06:16:47.012Z,70.49
2018-02-15T06:19:50.301Z,70.10
2018-02-15T06:23:00.196Z,70.02
2018-02-15T06:26:04.064Z,70.23
2018-02-15T06:29:08.107Z,70.92
2018-02-15T06:32:11.413Z,71.06
2018-02-15T06:35:14.685Z,71.03
2018-02-15T06:38:17.962Z,71.10
2018-02-15T06:41:21.989Z,71.04
2018-02-15T06:44:25.716Z,69.86
2018-02-15T06:47:28.989Z,69.49
2018-02-15T06:50:33.256Z,69.04
2018-02-15T06:53:36.549Z,68.36
2018-02-15T06:56:39.830Z,68.23
2018-02-15T06:59:43.104Z,67.48
2018-02-15T07:02:47.154Z,67.47
2018-02-15T07:05:50.426Z,66.57
2018-02-15T07:08:53.702Z,66.24
2018-02-15T07:11:57.944Z,66.07
2018-02-15T07:15:01.958Z,65.33
2018-02-15T07:18:05.267Z,65.40
2018-02-15T07:21:08.713Z,65.38
2018-02-15T07:24:12.039Z,65.17
2018-02-15T07:27:15.317Z,64.15
2018-02-15T07:30:18.802Z,64.23
2018-02-15T07:33:22.868Z,64.56
2018-02-15T07:36:27.435Z,63.85
2018-02-15T07:39:31.711Z,63.61
2018-02-15T07:42:35.046Z,63.20
2018-02-15T07:45:38.372Z,63.34
2018-02-15T07:48:41.705Z,63.11
2018-02-15T07:51:44.981Z,63.21
2018-02-15T07:54:49.023Z,62.45
2018-02-15T07:57:52.320Z,62.05
2018-02-15T08:00:55.588Z,62.42
2018-02-15T08:03:58.880Z,62.19
2018-02-15T08:07:02.204Z,62.20
2018-02-15T08:10:06.289Z,61.58
2018-02-15T08:13:09.573Z,62.04
2018-02-15T08:16:12.868Z,62.18
2018-02-15T08:19:16.169Z,60.92
2018-02-15T08:22:19.499Z,61.30
2018-02-15T08:25:23.529Z,60.77
2018-02-15T08:28:27.670Z,59.75
2018-02-15T08:31:30.962Z,59.82
2018-02-15T08:34:34.280Z,58.96
2018-02-15T08:37:37.567Z,58.06
2018-02-15T08:40:40.909Z,57.75
2018-02-15T08:43:44.230Z,57.69
2018-02-15T08:46:48.271Z,57.34
2018-02-15T08:49:51.549Z,56.71
2018-02-15T08:52:54.845Z,55.72
2018-02-15T08:55:58.388Z,55.36
2018-02-15T08:59:01.671Z,54.61
2018-02-15T09:02:04.959Z,54.94
2018-02-15T09:05:08.244Z,54.09
2018-02-15T09:08:11.529Z,53.16
2018-02-15T09:11:15.581Z,54.00
2018-02-15T09:14:18.853Z,52.99
2018-02-15T09:17:22.899Z,53.15
2018-02-15T09:20:26.266Z,52.48
2018-02-15T09:23:29.639Z,51.78
2018-02-15T09:26:32.913Z,52.55
2018-02-15T09:29:36.199Z,50.91
2018-02-15T09:32:39.498Z,50.69
2018-02-15T09:35:42.786Z,50.65
2018-02-15T09:38:46.060Z,51.00
2018-02-15T09:41:49.332Z,50.17
2018-02-15T09:44:53.464Z,50.94
2018-02-15T09:47:57.534Z,50.68
2018-02-15T09:51:01.709Z,49.42
2018-02-15T09:54:05.009Z,49.59
2018-02-15T09:57:08.270Z,47.80
2018-02-15T10:00:11.610Z,48.74
2018-02-15T10:03:14.904Z,50.23
2018-02-15T10:06:18.174Z,52.44
2018-02-15T10:09:22.256Z,49.67
2018-02-15T10:12:25.532Z,48.52
2018-02-15T10:15:30.839Z,48.89
2018-02-15T10:18:34.880Z,49.39
2018-02-15T10:21:38.143Z,48.66
2018-02-15T10:24:42.170Z,49.56
2018-02-15T10:27:46.207Z,46.94
2018-02-15T10:30:49.489Z,49.22
2018-02-15T10:33:52.753Z,50.64
2018-02-15T10:36:56.027Z,48.68
2018-02-15T10:40:00.583Z,48.18
2018-02-15T10:43:04.732Z,51.63
2018-02-15T10:46:08.021Z,49.12
2018-02-15T10:49:11.281Z,47.66
2018-02-15T10:52:14.552Z,47.73
2018-02-15T10:55:17.929Z,46.36
2018-02-15T10:58:21.189Z,47.43
2018-02-15T11:01:30.757Z,47.36
2018-02-15T11:04:34.954Z,48.55
2018-02-15T11:07:38.264Z,51.29
2018-02-15T11:10:42.299Z,48.62
2018-02-15T11:13:45.561Z,48.69
2018-02-15T11:16:49.608Z,48.36
2018-02-15T11:19:52.876Z,47.99
2018-02-15T11:22:56.916Z,48.54
2018-02-15T11:26:00.176Z,47.97
2018-02-15T11:29:03.464Z,49.15
2018-02-15T11:32:07.398Z,48.02
2018-02-15T11:35:11.442Z,50.42
2018-02-15T11:38:14.727Z,50.58
2018-02-15T11:41:18.744Z,48.63
2018-02-15T11:44:22.023Z,51.00
2018-02-15T11:47:26.058Z,49.56
2018-02-15T11:50:29.329Z,50.08
2018-02-15T11:53:33.372Z,48.89
2018-02-15T11:56:36.683Z,48.81
2018-02-15T11:59:40.769Z,47.94
2018-02-15T12:02:45.726Z,47.79
2018-02-15T12:05:48.989Z,50.19
2018-02-15T12:08:52.272Z,49.79
2018-02-15T12:11:55.528Z,49.98
2018-02-15T12:14:58.900Z,49.93
2018-02-15T12:18:03.947Z,50.51
2018-02-15T12:21:07.216Z,51.22
2018-02-15T12:24:10.481Z,50.98
2018-02-15T12:27:13.741Z,51.54
2018-02-15T12:30:17.014Z,52.42
2018-02-15T12:33:21.050Z,51.99
2018-02-15T12:36:24.334Z,52.66
2018-02-15T12:39:27.797Z,52.27
2018-02-15T12:42:31.068Z,51.65
2018-02-15T12:45:34.363Z,52.26
2018-02-15T12:48:37.640Z,53.18
2018-02-15T12:51:41.834Z,51.91
2018-02-15T12:54:46.647Z,53.05
2018-02-15T12:57:49.900Z,53.44
2018-02-15T13:00:53.164Z,52.99
2018-02-15T13:03:57.206Z,53.40
2018-02-15T13:07:00.499Z,54.30
2018-02-15T13:10:05.529Z,53.36
2018-02-15T13:13:27.309Z,51.28
2018-02-15T13:16:48.466Z,50.62
2018-02-15T13:20:23.857Z,50.39
2018-02-15T13:23:27.148Z,49.85
2018-02-15T13:26:30.416Z,49.89
2018-02-15T13:29:35.681Z,49.66
2018-02-15T13:32:39.071Z,51.69
2018-02-15T13:35:43.757Z,52.59
2018-02-15T13:38:47.029Z,53.14
2018-02-15T13:41:50.422Z,53.13
2018-02-15T13:44:53.678Z,53.76
2018-02-15T13:47:57.733Z,55.77
2018-02-15T13:51:01.049Z,59.18
2018-02-15T13:54:04.320Z,59.80
2018-02-15T13:57:07.583Z,61.54
2018-02-15T14:00:11.607Z,61.28
2018-02-15T14:03:15.642Z,62.66
2018-02-15T14:06:18.906Z,63.56
2018-02-15T14:09:22.775Z,63.68
2018-02-15T14:12:26.817Z,65.31
2018-02-15T14:15:30.086Z,66.16
2018-02-15T14:18:33.365Z,66.76
2018-02-15T14:21:37.701Z,69.97
2018-02-15T14:24:40.961Z,71.15
2018-02-15T14:27:45.015Z,71.63
2018-02-15T14:30:48.336Z,72.08
2018-02-15T14:33:51.628Z,71.47
2018-02-15T14:36:54.909Z,71.64
2018-02-15T14:39:58.188Z,72.24
2018-02-15T14:43:01.448Z,73.84
2018-02-15T14:46:05.568Z,75.01
2018-02-15T14:49:09.602Z,74.12
2018-02-15T14:52:12.913Z,73.91
2018-02-15T14:55:17.797Z,74.32
2018-02-15T14:58:21.085Z,73.93
2018-02-15T15:01:24.359Z,74.12
2018-02-15T15:04:27.650Z,74.19
2018-02-15T15:07:43.751Z,74.41
2018-02-15T15:11:01.769Z,74.81
2018-02-15T15:14:06.197Z,75.11
2018-02-15T15:17:10.588Z,75.08
2018-02-15T15:20:14.873Z,75.37
2018-02-15T15:23:18.380Z,75.64
2018-02-15T15:26:21.876Z,75.87
2018-02-15T15:29:25.618Z,76.34
2018-02-15T15:32:29.590Z,76.73
2018-02-15T15:35:33.139Z,77.11
2018-02-15T15:38:38.266Z,77.17
2018-02-15T15:41:42.631Z,77.40
2018-02-15T15:44:46.598Z,77.34
2018-02-15T15:47:50.180Z,77.53
2018-02-15T15:50:53.483Z,77.76
2018-02-15T15:53:56.818Z,78.06
2018-02-15T15:57:00.857Z,78.56
2018-02-15T16:00:04.364Z,79.01
2018-02-15T16:03:07.738Z,79.14
2018-02-15T16:06:11.925Z,79.14
2018-02-15T16:09:15.257Z,80.04
2018-02-15T16:12:19.322Z,80.42
2018-02-15T16:15:23.784Z,80.14
2018-02-15T16:18:28.651Z,80.08
2018-02-15T16:21:32.266Z,80.49
2018-02-15T16:24:35.938Z,80.53
2018-02-15T16:27:40.421Z,80.52
2018-02-15T16:30:43.888Z,81.22
2018-02-15T16:33:47.618Z,80.89
2018-02-15T16:36:51.240Z,80.90
2018-02-15T16:39:56.110Z,81.54
2018-02-15T16:42:59.788Z,82.41
2018-02-15T16:46:03.092Z,82.03
2018-02-15T16:49:06.812Z,82.31
2018-02-15T16:52:10.451Z,82.69
2018-02-15T16:55:13.769Z,82.99
2018-02-15T16:58:17.067Z,83.38
2018-02-15T17:01:20.333Z,82.90
2018-02-15T17:04:24.375Z,82.83
2018-02-15T17:07:27.864Z,83.31
2018-02-15T17:10:31.242Z,83.50
2018-02-15T17:13:34.551Z,83.41
2018-02-15T17:16:39.449Z,83.56
2018-02-15T17:19:44.061Z,83.88
2018-02-15T17:22:47.340Z,84.06
2018-02-15T17:25:51.464Z,83.79
2018-02-15T17:28:54.953Z,83.85
2018-02-15T17:31:58.853Z,83.70
2018-02-15T17:35:02.913Z,83.70
2018-02-15T17:38:06.188Z,83.72
2018-02-15T17:41:09.455Z,84.04
2018-02-15T17:44:14.751Z,84.52
2018-02-15T17:47:18.014Z,84.34
2018-02-15T17:50:21.288Z,83.95
2018-02-15T17:53:25.541Z,83.60
2018-02-15T17:56:28.815Z,83.39
2018-02-15T17:59:32.856Z,83.23
2018-02-15T18:02:36.136Z,82.92
2018-02-15T18:05:40.174Z,83.34
2018-02-15T18:08:43.678Z,83.28
2018-02-15T18:11:47.084Z,83.07
2018-02-15T18:14:50.586Z,83.25
2018-02-15T18:17:54.053Z,83.14
2018-02-15T18:20:57.666Z,83.32
2018-02-15T18:24:01.100Z,83.12
2018-02-15T18:27:04.649Z,83.42
2018-02-15T18:30:08.308Z,83.47
2018-02-15T18:33:11.652Z,83.31
2018-02-15T18:36:17.024Z,83.23
2018-02-15T18:39:20.403Z,83.07
2018-02-15T18:42:24.457Z,83.11
2018-02-15T18:45:27.793Z,83.21
2018-02-15T18:48:31.128Z,83.25
2018-02-15T18:51:35.229Z,83.62
2018-02-15T18:54:39.351Z,83.57
2018-02-15T18:57:43.475Z,83.46
2018-02-15T19:00:47.590Z,83.47
2018-02-15T19:03:52.704Z,83.42
2018-02-15T19:06:57.637Z,83.58
2018-02-15T19:10:00.898Z,83.73
2018-02-15T19:13:04.166Z,83.59
2018-02-15T19:16:08.197Z,83.56
2018-02-15T19:19:11.509Z,83.69
2018-02-15T19:22:14.829Z,83.76
2018-02-15T19:25:18.586Z,83.65
2018-02-15T19:28:22.609Z,83.53
2018-02-15T19:31:25.926Z,83.77
2018-02-15T19:34:29.179Z,83.76
2018-02-15T19:37:33.217Z,83.74
2018-02-15T19:40:36.520Z,83.72
2018-02-15T19:43:40.186Z,83.63
2018-02-15T19:46:43.468Z,83.78
2018-02-15T19:49:46.729Z,83.56
2018-02-15T19:52:50.023Z,83.78
2018-02-15T19:55:53.601Z,83.46
2018-02-15T19:58:57.648Z,83.54
2018-02-15T20:02:01.209Z,83.85
2018-02-15T20:05:04.476Z,84.35
2018-02-15T20:08:07.792Z,84.52
2018-02-15T20:11:11.066Z,84.64
2018-02-15T20:14:15.288Z,84.57
2018-02-15T20:17:18.613Z,84.35
2018-02-15T20:20:24.773Z,84.65
2018-02-15T20:23:28.137Z,84.71
2018-02-15T20:26:36.944Z,85.01
2018-02-15T20:29:40.322Z,84.70
2018-02-15T20:32:43.798Z,84.73
2018-02-15T20:35:47.914Z,84.45
2018-02-15T20:38:58.128Z,84.40
2018-02-15T20:42:01.461Z,84.57
2018-02-15T20:45:05.585Z,84.48
2018-02-15T20:48:09.685Z,84.54
2018-02-15T20:51:18.653Z,84.48
2018-02-15T20:54:29.062Z,84.55
2018-02-15T20:57:32.430Z,84.59
2018-02-15T21:00:35.825Z,84.66
2018-02-15T21:03:39.909Z,84.53
2018-02-15T21:06:43.267Z,84.88
2018-02-15T21:09:46.605Z,84.88
2018-02-15T21:12:49.933Z,84.71
2018-02-15T21:15:53.288Z,84.64
2018-02-15T21:18:58.136Z,84.70
2018-02-15T21:22:02.260Z,84.92
2018-02-15T21:25:06.371Z,85.17
2018-02-15T21:28:09.701Z,85.25
2018-02-15T21:31:13.085Z,85.48
2018-02-15T21:34:17.189Z,85.30
2018-02-15T21:37:20.512Z,85.03
2018-02-15T21:40:23.859Z,84.88
2018-02-15T21:43:27.189Z,84.73
2018-02-15T21:46:30.545Z,84.46
2018-02-15T21:49:33.923Z,84.97
2018-02-15T21:52:38.158Z,84.91
2018-02-15T21:55:41.489Z,85.21
2018-02-15T21:58:45.653Z,85.18
2018-02-15T22:01:49.153Z,85.64
2018-02-15T22:04:54.498Z,85.51
2018-02-15T22:07:57.974Z,85.46
2018-02-15T22:11:04.483Z,84.98
2018-02-15T22:14:40.874Z,85.39
2018-02-15T22:17:46.137Z,85.35
2018-02-15T22:20:50.365Z,85.12
2018-02-15T22:23:55.487Z,85.37
2018-02-15T22:26:59.761Z,85.31
2018-02-15T22:30:03.354Z,85.70
2018-02-15T22:33:07.544Z,85.65
2018-02-15T22:36:10.886Z,86.01
2018-02-15T22:39:15.004Z,85.87
2018-02-15T22:42:18.345Z,85.50
2018-02-15T22:45:22.459Z,85.34
2018-02-15T22:48:25.837Z,85.21
2018-02-15T22:51:30.059Z,85.30
2018-02-15T22:54:34.152Z,85.11
2018-02-15T22:57:38.253Z,85.80
2018-02-15T23:00:41.622Z,85.62
2018-02-15T23:03:44.949Z,85.88
2018-02-15T23:06:48.473Z,86.20
2018-02-15T23:09:51.825Z,85.97
2018-02-15T23:12:55.612Z,86.88
2018-02-15T23:15:58.955Z,86.46
2018-02-15T23:19:02.317Z,86.79
2018-02-15T23:22:05.830Z,86.86
2018-02-15T23:25:09.175Z,86.93
2018-02-15T23:28:12.518Z,86.81
2018-02-15T23:31:15.866Z,87.09
2018-02-15T23:34:19.208Z,86.85
2018-02-15T23:37:22.572Z,86.52
2018-02-15T23:40:26.130Z,87.02
2018-02-15T23:43:29.469Z,86.00
2018-02-15T23:46:32.864Z,86.68
2018-02-15T23:49:36.245Z,86.40
2018-02-15T23:52:39.573Z,86.74
2018-02-15T23:55:42.904Z,87.26
2018-02-15T23:58:46.257Z,86.89
